Wetterdaten: Woche 04.04.16 - 10.04.16 (KW14)
Datum Zeit Temp. Aussen Temp. o. S. +5cm Feuchte Auss BlattFeu 1 Luftdruck Regen Sonnenschein Regendauer Solar Windben Empfang
04.04.2016 00:00 14,7 C 14,5 C 12,8 C 85 % 0 lf 1006,5 hPa 0,0 l/m 0,00 h 0,37 h 0 W/m 18,1 km/h (3 Bft) 95,07 %
04.04.2016 01:00 13,9 C 12,8 C 11,5 C 91 % 9 lf 1006,2 hPa 1,0 l/m 0,00 h 1,00 h 0 W/m 17,7 km/h (3 Bft) 96,37 %
04.04.2016 02:00 13,2 C 12,5 C 11,1 C 94 % 6 lf 1005,5 hPa 0,0 l/m 0,00 h 0,03 h 0 W/m 15,3 km/h (3 Bft) 96,02 %
04.04.2016 03:00 12,8 C 12,2 C 10,7 C 95 % 1 lf 1004,8 hPa 0,0 l/m 0,00 h 0,00 h 0 W/m 14,6 km/h (3 Bft) 97,27 %
04.04.2016 04:00 12,7 C 12,1 C 10,4 C 93 % 0 lf 1004,5 hPa 0,0 l/m 0,00 h 0,00 h 0 W/m 15,8 km/h (3 Bft) 95,12 %
04.04.2016 05:00 13,1 C 12,7 C 10,3 C 88 % 0 lf 1004,1 hPa 0,0 l/m 0,00 h 0,00 h 0 W/m 15,9 km/h (3 Bft) 94,76 %
04.04.2016 06:00 12,7 C 12,4 C 9,7 C 88 % 0 lf 1004,1 hPa 0,0 l/m 0,00 h 0,00 h 5 W/m 9,9 km/h (2 Bft) 97,49 %
04.04.2016 07:00 11,9 C 11,5 C 9,2 C 89 % 0 lf 1004,3 hPa 0,0 l/m 0,23 h 0,00 h 32 W/m 8,4 km/h (2 Bft) 95,66 %
04.04.2016 08:00 12,3 C 13,7 C 11,6 C 92 % 0 lf 1004,5 hPa 0,0 l/m 0,33 h 0,00 h 103 W/m 10,6 km/h (2 Bft) 95,68 %
04.04.2016 09:00 14,2 C 16,9 C 14,0 C 88 % 0 lf 1004,6 hPa 0,0 l/m 0,43 h 0,00 h 207 W/m 11,4 km/h (2 Bft) 95,09 %
04.04.2016 10:00 15,3 C 16,0 C 13,9 C 79 % 0 lf 1005,1 hPa 0,0 l/m 0,00 h 0,00 h 105 W/m 22,9 km/h (4 Bft) 97,15 %
04.04.2016 11:00 14,4 C 14,3 C 12,5 C 80 % 2 lf 1005,9 hPa 0,0 l/m 0,00 h 0,17 h 63 W/m 25,3 km/h (4 Bft) 95,87 %
04.04.2016 12:00 13,4 C 16,0 C 13,4 C 84 % 0 lf 1006,3 hPa 0,0 l/m 0,30 h 0,00 h 262 W/m 25,2 km/h (4 Bft) 95,80 %
04.04.2016 13:00 14,6 C 17,3 C 14,3 C 79 % 0 lf 1006,4 hPa 0,0 l/m 0,57 h 0,00 h 360 W/m 31,2 km/h (5 Bft) 95,13 %
04.04.2016 14:00 15,3 C 20,3 C 15,7 C 72 % 0 lf 1006,5 hPa 0,0 l/m 0,97 h 0,00 h 575 W/m 26,2 km/h (4 Bft) 97,04 %
04.04.2016 15:00 17,0 C 22,6 C 15,6 C 62 % 0 lf 1006,3 hPa 0,0 l/m 0,80 h 0,00 h 589 W/m 22,4 km/h (4 Bft) 96,58 %
04.04.2016 16:00 17,7 C 22,8 C 16,0 C 58 % 0 lf 1006,0 hPa 0,0 l/m 0,90 h 0,00 h 497 W/m 19,5 km/h (3 Bft) 94,87 %
04.04.2016 17:00 17,4 C 20,4 C 15,4 C 57 % 0 lf 1005,6 hPa 0,0 l/m 0,63 h 0,00 h 306 W/m 19,8 km/h (4 Bft) 98,29 %
04.04.2016 18:00 17,2 C 18,6 C 14,3 C 56 % 0 lf 1005,4 hPa 0,0 l/m 0,97 h 0,00 h 196 W/m 15,7 km/h (3 Bft) 95,73 %
04.04.2016 19:00 16,7 C 15,9 C 13,2 C 58 % 0 lf 1005,6 hPa 0,0 l/m 0,17 h 0,00 h 44 W/m 8,4 km/h (2 Bft) 95,23 %
04.04.2016 20:00 15,0 C 12,4 C 10,3 C 65 % 0 lf 1005,8 hPa 0,0 l/m 0,00 h 0,00 h 8 W/m 1,4 km/h (1 Bft) 96,66 %
04.04.2016 21:00 12,5 C 10,6 C 8,8 C 73 % 0 lf 1006,0 hPa 0,0 l/m 0,00 h 0,00 h 2 W/m 1,5 km/h (1 Bft) 98,08 %
04.04.2016 22:00 10,9 C 9,3 C 7,8 C 77 % 0 lf 1005,8 hPa 0,0 l/m 0,00 h 0,00 h 0 W/m 0,8 km/h (0 Bft) 92,60 %
04.04.2016 23:00 9,8 C 9,0 C 7,3 C 81 % 0 lf 1005,4 hPa 0,0 l/m 0,00 h 0,00 h 0 W/m 0,9 km/h (0 Bft) 97,01 %
05.04.2016 00:00 9,3 C 9,4 C 7,7 C 86 % 0 lf 1005,3 hPa 0,0 l/m 0,00 h 0,00 h 0 W/m 1,5 km/h (1 Bft) 97,57 %
05.04.2016 01:00 9,2 C 9,5 C 7,8 C 87 % 0 lf 1004,9 hPa 0,0 l/m 0,00 h 0,00 h 0 W/m 1,8 km/h (1 Bft) 95,80 %
05.04.2016 02:00 9,7 C 9,8 C 8,4 C 88 % 7 lf 1004,9 hPa 0,2 l/m 0,00 h 0,70 h 0 W/m 4,4 km/h (1 Bft) 95,17 %
05.04.2016 03:00 10,2 C 9,4 C 8,3 C 89 % 15 lf 1004,9 hPa 0,0 l/m 0,00 h 0,87 h 0 W/m 3,3 km/h (1 Bft) 96,44 %
05.04.2016 04:00 10,2 C 9,4 C 8,3 C 91 % 15 lf 1004,6 hPa 0,6 l/m 0,00 h 1,00 h 0 W/m 2,3 km/h (1 Bft) 95,80 %
05.04.2016 05:00 10,1 C 9,4 C 8,3 C 93 % 15 lf 1004,4 hPa 1,6 l/m 0,00 h 1,00 h 0 W/m 2,9 km/h (1 Bft) 97,09 %
05.04.2016 06:00 9,9 C 9,4 C 8,3 C 94 % 15 lf 1004,3 hPa 0,0 l/m 0,00 h 0,43 h 0 W/m 1,5 km/h (1 Bft) 95,54 %
05.04.2016 07:00 9,8 C 9,7 C 8,7 C 95 % 15 lf 1004,4 hPa 0,2 l/m 0,00 h 0,30 h 15 W/m 1,5 km/h (1 Bft) 94,44 %
05.04.2016 08:00 10,1 C 10,3 C 9,1 C 95 % 15 lf 1004,6 hPa 0,4 l/m 0,00 h 0,93 h 25 W/m 0,8 km/h (0 Bft) 97,58 %
05.04.2016 09:00 10,6 C 10,7 C 9,4 C 96 % 15 lf 1004,8 hPa 0,2 l/m 0,00 h 1,00 h 64 W/m 7,1 km/h (2 Bft) 95,16 %
05.04.2016 10:00 10,9 C 11,4 C 9,9 C 97 % 15 lf 1004,8 hPa 0,4 l/m 0,00 h 1,00 h 106 W/m 5,4 km/h (1 Bft) 95,59 %
05.04.2016 11:00 11,3 C 12,0 C 10,6 C 97 % 15 lf 1005,2 hPa 0,2 l/m 0,00 h 0,70 h 162 W/m 7,8 km/h (2 Bft) 95,59 %
05.04.2016 12:00 11,9 C 12,8 C 10,9 C 97 % 15 lf 1005,5 hPa 0,0 l/m 0,00 h 0,93 h 188 W/m 9,5 km/h (2 Bft) 97,17 %
05.04.2016 13:00 12,6 C 14,3 C 11,3 C 95 % 15 lf 1005,7 hPa 0,0 l/m 0,00 h 1,00 h 234 W/m 12,1 km/h (2 Bft) 95,59 %
05.04.2016 14:00 12,9 C 14,8 C 11,3 C 91 % 12 lf 1005,9 hPa 0,0 l/m 0,03 h 0,70 h 246 W/m 12,8 km/h (3 Bft) 95,30 %
05.04.2016 15:00 12,8 C 12,2 C 10,8 C 90 % 15 lf 1006,2 hPa 0,6 l/m 0,00 h 0,83 h 117 W/m 11,8 km/h (2 Bft) 96,09 %
05.04.2016 16:00 11,9 C 11,4 C 10,1 C 93 % 15 lf 1006,8 hPa 0,8 l/m 0,00 h 1,00 h 95 W/m 13,5 km/h (3 Bft) 97,36 %
05.04.2016 17:00 11,2 C 10,8 C 9,6 C 93 % 15 lf 1007,4 hPa 0,0 l/m 0,00 h 0,80 h 88 W/m 8,2 km/h (2 Bft) 95,31 %
05.04.2016 18:00 11,8 C 12,5 C 10,4 C 94 % 12 lf 1007,4 hPa 0,0 l/m 0,73 h 0,03 h 185 W/m 9,9 km/h (2 Bft) 96,55 %
05.04.2016 19:00 12,1 C 11,4 C 9,6 C 91 % 0 lf 1007,6 hPa 0,0 l/m 0,30 h 0,00 h 44 W/m 11,6 km/h (2 Bft) 95,66 %
05.04.2016 20:00 10,5 C 8,8 C 7,6 C 88 % 15 lf 1008,5 hPa 0,6 l/m 0,00 h 0,27 h 5 W/m 5,9 km/h (2 Bft) 95,75 %
05.04.2016 21:00 9,3 C 8,6 C 7,6 C 90 % 15 lf 1009,2 hPa 0,0 l/m 0,00 h 0,03 h 0 W/m 1,5 km/h (1 Bft) 98,08 %
05.04.2016 22:00 9,1 C 8,8 C 7,5 C 92 % 15 lf 1009,7 hPa 0,0 l/m 0,00 h 0,03 h 0 W/m 8,6 km/h (2 Bft) 94,31 %
05.04.2016 23:00 9,0 C 8,4 C 7,1 C 92 % 15 lf 1009,9 hPa 0,0 l/m 0,00 h 0,00 h 0 W/m 9,5 km/h (2 Bft) 95,73 %
06.04.2016 00:00 8,7 C 7,7 C 6,4 C 91 % 14 lf 1010,1 hPa 0,0 l/m 0,00 h 0,00 h 0 W/m 9,2 km/h (2 Bft) 97,86 %
06.04.2016 01:00 8,1 C 7,2 C 5,9 C 91 % 14 lf 1010,3 hPa 0,0 l/m 0,00 h 0,00 h 0 W/m 9,0 km/h (2 Bft) 96,37 %
06.04.2016 02:00 7,6 C 7,1 C 5,7 C 92 % 9 lf 1010,4 hPa 0,0 l/m 0,00 h 0,00 h 0 W/m 13,7 km/h (3 Bft) 95,16 %
06.04.2016 03:00 7,2 C 6,9 C 5,6 C 93 % 3 lf 1010,4 hPa 0,0 l/m 0,00 h 0,00 h 0 W/m 13,1 km/h (3 Bft) 96,51 %
06.04.2016 04:00 7,4 C 7,6 C 6,3 C 94 % 1 lf 1010,3 hPa 0,0 l/m 0,00 h 0,00 h 0 W/m 17,0 km/h (3 Bft) 95,56 %
06.04.2016 05:00 7,3 C 7,1 C 5,8 C 93 % 1 lf 1010,2 hPa 0,0 l/m 0,00 h 0,00 h 0 W/m 15,2 km/h (3 Bft) 97,09 %
06.04.2016 06:00 7,1 C 7,1 C 5,9 C 93 % 1 lf 1010,1 hPa 0,0 l/m 0,00 h 0,00 h 4 W/m 17,4 km/h (3 Bft) 95,73 %
06.04.2016 07:00 7,2 C 7,5 C 6,3 C 94 % 1 lf 1010,3 hPa 0,0 l/m 0,00 h 0,00 h 22 W/m 20,5 km/h (4 Bft) 95,66 %
06.04.2016 08:00 7,9 C 8,8 C 7,4 C 93 % 0 lf 1010,5 hPa 0,0 l/m 0,00 h 0,00 h 78 W/m 24,7 km/h (4 Bft) 95,51 %
06.04.2016 09:00 8,5 C 9,8 C 8,1 C 89 % 0 lf 1010,8 hPa 0,0 l/m 0,00 h 0,00 h 143 W/m 28,0 km/h (4 Bft) 96,30 %
06.04.2016 10:00 9,6 C 13,9 C 11,2 C 86 % 0 lf 1010,9 hPa 0,0 l/m 0,63 h 0,00 h 330 W/m 27,0 km/h (4 Bft) 97,92 %
06.04.2016 11:00 11,2 C 16,3 C 13,8 C 80 % 0 lf 1010,5 hPa 0,0 l/m 0,70 h 0,00 h 486 W/m 28,7 km/h (4 Bft) 94,95 %
06.04.2016 12:00 11,8 C 13,7 C 11,8 C 74 % 0 lf 1010,0 hPa 0,0 l/m 0,13 h 0,00 h 262 W/m 35,6 km/h (5 Bft) 95,80 %
06.04.2016 13:00 11,9 C 15,2 C 11,7 C 72 % 0 lf 1009,3 hPa 0,0 l/m 0,43 h 0,00 h 386 W/m 37,2 km/h (5 Bft) 98,43 %
06.04.2016 14:00 13,0 C 16,1 C 12,6 C 67 % 0 lf 1008,7 hPa 0,0 l/m 0,37 h 0,00 h 359 W/m 36,7 km/h (5 Bft) 93,80 %
06.04.2016 15:00 13,7 C 15,9 C 13,3 C 65 % 0 lf 1007,8 hPa 0,0 l/m 0,60 h 0,00 h 343 W/m 32,6 km/h (5 Bft) 96,37 %
06.04.2016 16:00 14,0 C 15,1 C 13,0 C 64 % 0 lf 1007,0 hPa 0,0 l/m 0,20 h 0,00 h 209 W/m 35,9 km/h (5 Bft) 95,98 %
06.04.2016 17:00 13,4 C 14,0 C 12,1 C 67 % 1 lf 1006,5 hPa 0,0 l/m 0,00 h 0,20 h 129 W/m 31,9 km/h (5 Bft) 97,10 %
06.04.2016 18:00 12,7 C 12,4 C 10,8 C 73 % 3 lf 1006,0 hPa 0,0 l/m 0,00 h 0,37 h 48 W/m 30,3 km/h (5 Bft) 94,10 %
06.04.2016 19:00 12,0 C 11,8 C 9,9 C 78 % 3 lf 1005,3 hPa 0,0 l/m 0,07 h 0,33 h 24 W/m 26,0 km/h (4 Bft) 97,15 %
06.04.2016 20:00 11,2 C 9,9 C 8,5 C 84 % 13 lf 1005,3 hPa 0,6 l/m 0,00 h 0,47 h 2 W/m 30,8 km/h (5 Bft) 97,29 %
06.04.2016 21:00 10,0 C 9,4 C 7,2 C 84 % 8 lf 1005,9 hPa 0,0 l/m 0,00 h 0,00 h 0 W/m 34,7 km/h (5 Bft) 95,59 %
06.04.2016 22:00 9,2 C 8,9 C 6,9 C 82 % 0 lf 1006,1 hPa 0,0 l/m 0,00 h 0,00 h 0 W/m 29,2 km/h (5 Bft) 94,51 %
06.04.2016 23:00 8,4 C 8,1 C 6,8 C 81 % 0 lf 1006,7 hPa 0,0 l/m 0,00 h 0,00 h 0 W/m 28,7 km/h (4 Bft) 97,01 %
07.04.2016 00:00 7,6 C 7,2 C 5,9 C 83 % 0 lf 1006,9 hPa 0,0 l/m 0,00 h 0,00 h 0 W/m 20,4 km/h (4 Bft) 97,15 %
07.04.2016 01:00 7,1 C 6,7 C 5,6 C 85 % 0 lf 1006,9 hPa 0,0 l/m 0,00 h 0,00 h 0 W/m 20,3 km/h (4 Bft) 96,16 %
07.04.2016 02:00 6,8 C 6,7 C 5,5 C 85 % 0 lf 1006,9 hPa 0,0 l/m 0,00 h 0,00 h 0 W/m 22,9 km/h (4 Bft) 93,81 %
07.04.2016 03:00 6,5 C 6,3 C 5,0 C 86 % 0 lf 1006,9 hPa 0,0 l/m 0,00 h 0,00 h 0 W/m 23,6 km/h (4 Bft) 97,51 %
07.04.2016 04:00 6,1 C 5,8 C 4,5 C 88 % 0 lf 1006,8 hPa 0,0 l/m 0,00 h 0,00 h 0 W/m 19,4 km/h (3 Bft) 96,65 %
07.04.2016 05:00 5,7 C 5,6 C 4,2 C 89 % 0 lf 1007,0 hPa 0,0 l/m 0,00 h 0,00 h 0 W/m 16,5 km/h (3 Bft) 95,87 %
07.04.2016 06:00 5,2 C 5,0 C 3,9 C 90 % 0 lf 1007,2 hPa 0,0 l/m 0,00 h 0,00 h 6 W/m 13,5 km/h (3 Bft) 96,94 %
07.04.2016 07:00 4,9 C 5,1 C 3,9 C 91 % 0 lf 1007,4 hPa 0,0 l/m 0,77 h 0,00 h 48 W/m 18,1 km/h (3 Bft) 94,09 %
07.04.2016 08:00 5,4 C 6,4 C 4,7 C 91 % 0 lf 1007,9 hPa 0,0 l/m 1,00 h 0,00 h 214 W/m 19,3 km/h (3 Bft) 97,43 %
07.04.2016 09:00 7,2 C 10,5 C 7,0 C 85 % 0 lf 1008,3 hPa 0,0 l/m 0,80 h 0,00 h 300 W/m 27,1 km/h (4 Bft) 97,15 %
07.04.2016 10:00 8,3 C 11,1 C 9,1 C 79 % 0 lf 1008,6 hPa 0,0 l/m 0,37 h 0,00 h 288 W/m 33,0 km/h (5 Bft) 93,73 %
07.04.2016 11:00 9,8 C 13,9 C 11,4 C 73 % 0 lf 1008,8 hPa 0,0 l/m 0,47 h 0,10 h 436 W/m 31,0 km/h (5 Bft) 96,72 %
07.04.2016 12:00 9,2 C 11,3 C 9,2 C 70 % 0 lf 1008,8 hPa 0,0 l/m 0,13 h 0,00 h 209 W/m 29,0 km/h (5 Bft) 98,43 %
07.04.2016 13:00 10,4 C 13,8 C 10,4 C 66 % 0 lf 1009,0 hPa 0,0 l/m 0,27 h 0,00 h 415 W/m 32,2 km/h (5 Bft) 93,02 %
07.04.2016 14:00 11,8 C 15,3 C 11,3 C 61 % 0 lf 1008,8 hPa 0,0 l/m 0,47 h 0,00 h 486 W/m 32,0 km/h (5 Bft) 97,01 %
07.04.2016 15:00 11,7 C 13,6 C 10,6 C 61 % 0 lf 1008,8 hPa 0,0 l/m 0,10 h 0,00 h 211 W/m 21,3 km/h (4 Bft) 98,36 %
07.04.2016 16:00 11,7 C 16,2 C 10,8 C 63 % 0 lf 1009,0 hPa 0,0 l/m 0,67 h 0,00 h 444 W/m 23,7 km/h (4 Bft) 93,02 %
07.04.2016 17:00 12,0 C 15,1 C 10,2 C 59 % 0 lf 1009,1 hPa 0,0 l/m 0,63 h 0,00 h 314 W/m 24,7 km/h (4 Bft) 97,46 %
07.04.2016 18:00 10,1 C 10,3 C 8,6 C 64 % 0 lf 1009,5 hPa 0,0 l/m 0,30 h 0,20 h 112 W/m 25,2 km/h (4 Bft) 96,52 %
07.04.2016 19:00 8,8 C 8,8 C 7,4 C 71 % 0 lf 1009,9 hPa 0,0 l/m 0,43 h 0,03 h 55 W/m 12,7 km/h (3 Bft) 95,44 %
07.04.2016 20:00 7,9 C 7,1 C 5,8 C 76 % 6 lf 1010,4 hPa 0,2 l/m 0,00 h 0,50 h 8 W/m 16,6 km/h (3 Bft) 94,79 %
07.04.2016 21:00 6,5 C 5,2 C 4,2 C 86 % 15 lf 1011,2 hPa 1,6 l/m 0,00 h 0,67 h 0 W/m 17,4 km/h (3 Bft) 97,74 %
07.04.2016 22:00 5,7 C 5,1 C 4,1 C 91 % 15 lf 1011,3 hPa 0,0 l/m 0,00 h 0,00 h 0 W/m 8,1 km/h (2 Bft) 94,62 %
07.04.2016 23:00 5,2 C 4,9 C 3,6 C 93 % 15 lf 1011,4 hPa 0,0 l/m 0,00 h 0,00 h 0 W/m 7,9 km/h (2 Bft) 98,98 %
08.04.2016 00:00 4,9 C 3,9 C 2,9 C 94 % 15 lf 1011,4 hPa 0,0 l/m 0,00 h 0,00 h 0 W/m 2,0 km/h (1 Bft) 90,18 %
08.04.2016 01:00 4,1 C 3,3 C 2,2 C 93 % 15 lf 1011,1 hPa 0,2 l/m 0,00 h 0,00 h 0 W/m 4,2 km/h (1 Bft) 95,15 %
08.04.2016 02:00 3,6 C 3,3 C 1,9 C 94 % 15 lf 1010,9 hPa 0,0 l/m 0,00 h 0,00 h 0 W/m 7,8 km/h (2 Bft) 98,17 %
08.04.2016 03:00 3,6 C 3,3 C 2,2 C 95 % 15 lf 1010,9 hPa 0,0 l/m 0,00 h 0,00 h 0 W/m 8,4 km/h (2 Bft) 96,25 %
08.04.2016 04:00 3,3 C 3,1 C 1,8 C 95 % 15 lf 1010,9 hPa 0,0 l/m 0,00 h 0,00 h 0 W/m 4,6 km/h (1 Bft) 96,01 %
08.04.2016 05:00 3,3 C 3,6 C 2,4 C 95 % 15 lf 1010,8 hPa 0,0 l/m 0,00 h 0,00 h 0 W/m 5,3 km/h (1 Bft) 95,85 %
08.04.2016 06:00 3,9 C 4,3 C 3,2 C 96 % 15 lf 1010,9 hPa 0,0 l/m 0,00 h 0,00 h 5 W/m 3,9 km/h (1 Bft) 97,94 %
08.04.2016 07:00 4,5 C 4,9 C 3,7 C 96 % 15 lf 1011,3 hPa 0,0 l/m 0,00 h 0,37 h 17 W/m 7,0 km/h (2 Bft) 95,25 %
08.04.2016 08:00 5,3 C 6,0 C 4,5 C 96 % 14 lf 1011,6 hPa 0,0 l/m 0,00 h 0,00 h 60 W/m 6,6 km/h (2 Bft) 96,30 %
08.04.2016 09:00 6,3 C 8,1 C 5,7 C 96 % 3 lf 1011,7 hPa 0,0 l/m 0,07 h 0,00 h 151 W/m 10,3 km/h (2 Bft) 94,81 %
08.04.2016 10:00 7,6 C 10,2 C 7,0 C 93 % 0 lf 1011,9 hPa 0,0 l/m 0,17 h 0,00 h 235 W/m 13,3 km/h (3 Bft) 96,46 %
08.04.2016 11:00 9,0 C 12,1 C 9,6 C 88 % 0 lf 1012,0 hPa 0,0 l/m 0,33 h 0,00 h 297 W/m 12,2 km/h (2 Bft) 95,84 %
08.04.2016 12:00 10,2 C 16,2 C 12,0 C 81 % 0 lf 1011,8 hPa 0,0 l/m 0,70 h 0,00 h 427 W/m 7,6 km/h (2 Bft) 97,87 %
08.04.2016 13:00 10,7 C 12,8 C 9,8 C 75 % 0 lf 1011,5 hPa 0,0 l/m 0,07 h 0,13 h 210 W/m 5,0 km/h (1 Bft) 93,77 %
08.04.2016 14:00 12,1 C 18,1 C 12,5 C 70 % 0 lf 1011,2 hPa 0,0 l/m 0,90 h 0,00 h 623 W/m 12,1 km/h (2 Bft) 96,92 %
08.04.2016 15:00 12,2 C 13,4 C 11,4 C 67 % 0 lf 1010,8 hPa 0,0 l/m 0,07 h 0,00 h 260 W/m 9,6 km/h (2 Bft) 96,43 %
08.04.2016 16:00 12,2 C 14,1 C 11,5 C 67 % 0 lf 1010,4 hPa 0,0 l/m 0,13 h 0,10 h 245 W/m 9,1 km/h (2 Bft) 96,28 %
08.04.2016 17:00 12,1 C 13,8 C 11,5 C 66 % 0 lf 1010,2 hPa 0,0 l/m 0,13 h 0,03 h 194 W/m 8,1 km/h (2 Bft) 96,88 %
08.04.2016 18:00 12,2 C 13,3 C 10,8 C 65 % 0 lf 1010,2 hPa 0,0 l/m 0,87 h 0,00 h 181 W/m 7,7 km/h (2 Bft) 95,66 %
08.04.2016 19:00 11,9 C 11,9 C 9,6 C 65 % 0 lf 1010,1 hPa 0,0 l/m 0,97 h 0,00 h 72 W/m 6,8 km/h (2 Bft) 96,52 %
08.04.2016 20:00 10,5 C 8,0 C 6,4 C 68 % 0 lf 1010,3 hPa 0,0 l/m 0,03 h 0,00 h 10 W/m 1,1 km/h (0 Bft) 96,50 %
08.04.2016 21:00 8,3 C 6,7 C 4,7 C 75 % 0 lf 1010,5 hPa 0,0 l/m 0,00 h 0,00 h 0 W/m 3,8 km/h (1 Bft) 95,95 %
08.04.2016 22:00 6,9 C 6,5 C 4,6 C 82 % 0 lf 1010,4 hPa 0,0 l/m 0,00 h 0,00 h 0 W/m 3,5 km/h (1 Bft) 97,28 %
08.04.2016 23:00 6,8 C 6,7 C 4,8 C 85 % 0 lf 1010,2 hPa 0,0 l/m 0,00 h 0,00 h 0 W/m 5,0 km/h (1 Bft) 95,02 %
09.04.2016 00:00 6,2 C 4,6 C 3,3 C 85 % 1 lf 1010,0 hPa 0,0 l/m 0,00 h 0,00 h 0 W/m 1,1 km/h (1 Bft) 92,08 %
09.04.2016 01:00 4,8 C 3,3 C 2,4 C 86 % 2 lf 1009,7 hPa 0,0 l/m 0,00 h 0,00 h 0 W/m 2,4 km/h (1 Bft) 96,98 %
09.04.2016 02:00 4,1 C 3,7 C 2,1 C 89 % 3 lf 1009,4 hPa 0,0 l/m 0,00 h 0,00 h 0 W/m 4,1 km/h (1 Bft) 96,66 %
09.04.2016 03:00 3,6 C 2,8 C 1,7 C 91 % 3 lf 1009,2 hPa 0,0 l/m 0,00 h 0,00 h 0 W/m 2,4 km/h (1 Bft) 95,73 %
09.04.2016 04:00 2,9 C 2,2 C 1,1 C 91 % 9 lf 1008,8 hPa 0,0 l/m 0,00 h 0,00 h 0 W/m 3,8 km/h (1 Bft) 94,31 %
09.04.2016 05:00 2,6 C 2,5 C 1,3 C 93 % 15 lf 1008,7 hPa 0,0 l/m 0,00 h 0,00 h 0 W/m 7,1 km/h (2 Bft) 97,36 %
09.04.2016 06:00 2,7 C 2,8 C 1,5 C 94 % 14 lf 1008,5 hPa 0,0 l/m 0,00 h 0,00 h 6 W/m 10,8 km/h (2 Bft) 97,01 %
09.04.2016 07:00 2,4 C 2,7 C 1,3 C 94 % 13 lf 1008,5 hPa 0,0 l/m 0,73 h 0,00 h 51 W/m 7,1 km/h (2 Bft) 95,31 %
09.04.2016 08:00 3,0 C 4,4 C 2,8 C 95 % 4 lf 1008,5 hPa 0,0 l/m 1,00 h 0,00 h 202 W/m 8,4 km/h (2 Bft) 96,42 %
09.04.2016 09:00 5,6 C 11,8 C 7,5 C 95 % 0 lf 1008,5 hPa 0,0 l/m 1,00 h 0,00 h 375 W/m 9,7 km/h (2 Bft) 94,81 %
09.04.2016 10:00 9,8 C 16,5 C 15,9 C 81 % 0 lf 1008,3 hPa 0,0 l/m 1,00 h 0,00 h 539 W/m 13,9 km/h (3 Bft) 97,23 %
09.04.2016 11:00 12,8 C 19,0 C 17,9 C 70 % 0 lf 1007,9 hPa 0,0 l/m 1,00 h 0,00 h 620 W/m 15,9 km/h (3 Bft) 97,15 %
09.04.2016 12:00 14,6 C 20,5 C 19,5 C 60 % 0 lf 1007,7 hPa 0,0 l/m 1,00 h 0,00 h 739 W/m 18,6 km/h (3 Bft) 94,16 %
09.04.2016 13:00 15,3 C 20,2 C 15,3 C 54 % 0 lf 1007,2 hPa 0,0 l/m 0,80 h 0,00 h 654 W/m 17,2 km/h (3 Bft) 97,48 %
09.04.2016 14:00 15,4 C 19,5 C 14,6 C 51 % 0 lf 1006,7 hPa 0,0 l/m 0,70 h 0,00 h 528 W/m 15,5 km/h (3 Bft) 96,08 %
09.04.2016 15:00 15,9 C 19,6 C 14,8 C 48 % 0 lf 1006,2 hPa 0,0 l/m 0,77 h 0,00 h 577 W/m 19,4 km/h (3 Bft) 95,88 %
09.04.2016 16:00 16,7 C 20,8 C 15,5 C 46 % 0 lf 1005,8 hPa 0,0 l/m 0,87 h 0,00 h 526 W/m 20,4 km/h (4 Bft) 97,07 %
09.04.2016 17:00 16,4 C 19,2 C 14,5 C 45 % 0 lf 1005,4 hPa 0,0 l/m 0,80 h 0,00 h 359 W/m 18,6 km/h (3 Bft) 94,59 %
09.04.2016 18:00 16,0 C 16,5 C 13,7 C 45 % 0 lf 1005,3 hPa 0,0 l/m 0,60 h 0,00 h 186 W/m 19,4 km/h (3 Bft) 98,37 %
09.04.2016 19:00 14,5 C 13,8 C 11,6 C 49 % 0 lf 1005,6 hPa 0,0 l/m 0,00 h 0,00 h 31 W/m 10,6 km/h (2 Bft) 96,30 %
09.04.2016 20:00 13,2 C 12,9 C 11,0 C 55 % 0 lf 1006,2 hPa 0,0 l/m 0,00 h 0,00 h 10 W/m 10,4 km/h (2 Bft) 95,06 %
09.04.2016 21:00 12,5 C 12,2 C 10,4 C 58 % 0 lf 1006,7 hPa 0,0 l/m 0,00 h 0,00 h 0 W/m 13,1 km/h (3 Bft) 96,72 %
09.04.2016 22:00 12,0 C 11,7 C 9,9 C 60 % 0 lf 1007,0 hPa 0,0 l/m 0,00 h 0,00 h 0 W/m 9,4 km/h (2 Bft) 97,01 %
09.04.2016 23:00 11,7 C 11,7 C 9,5 C 61 % 0 lf 1007,0 hPa 0,0 l/m 0,00 h 0,00 h 0 W/m 10,1 km/h (2 Bft) 96,01 %
10.04.2016 00:00 11,4 C 11,1 C 9,0 C 61 % 0 lf 1007,0 hPa 0,0 l/m 0,00 h 0,00 h 0 W/m 11,4 km/h (2 Bft) 95,87 %
10.04.2016 01:00 10,3 C 9,7 C 7,4 C 65 % 0 lf 1007,3 hPa 0,0 l/m 0,00 h 0,00 h 0 W/m 8,9 km/h (2 Bft) 95,59 %
10.04.2016 02:00 9,1 C 8,8 C 7,0 C 71 % 0 lf 1007,6 hPa 0,0 l/m 0,00 h 0,00 h 0 W/m 10,3 km/h (2 Bft) 96,94 %
10.04.2016 03:00 8,6 C 8,6 C 7,1 C 74 % 0 lf 1008,1 hPa 0,0 l/m 0,00 h 0,00 h 0 W/m 9,8 km/h (2 Bft) 96,65 %
10.04.2016 04:00 8,6 C 8,5 C 6,7 C 74 % 0 lf 1008,4 hPa 0,0 l/m 0,00 h 0,00 h 0 W/m 5,4 km/h (1 Bft) 96,20 %
10.04.2016 05:00 8,3 C 8,3 C 6,7 C 75 % 0 lf 1008,6 hPa 0,0 l/m 0,00 h 0,00 h 0 W/m 3,8 km/h (1 Bft) 95,37 %
10.04.2016 06:00 8,1 C 8,0 C 6,7 C 77 % 0 lf 1009,1 hPa 0,0 l/m 0,00 h 0,00 h 7 W/m 4,6 km/h (1 Bft) 97,08 %
10.04.2016 07:00 8,1 C 7,9 C 6,7 C 84 % 1 lf 1009,9 hPa 0,0 l/m 0,00 h 0,07 h 12 W/m 9,3 km/h (2 Bft) 96,73 %
10.04.2016 08:00 8,1 C 8,9 C 7,3 C 88 % 0 lf 1010,5 hPa 0,0 l/m 0,00 h 0,00 h 64 W/m 7,1 km/h (2 Bft) 94,80 %
10.04.2016 09:00 8,5 C 10,3 C 8,0 C 90 % 6 lf 1010,8 hPa 0,0 l/m 0,00 h 0,13 h 151 W/m 6,8 km/h (2 Bft) 95,74 %
10.04.2016 10:00 9,6 C 15,1 C 10,8 C 87 % 0 lf 1011,2 hPa 0,0 l/m 0,70 h 0,00 h 339 W/m 10,0 km/h (2 Bft) 98,00 %
10.04.2016 11:00 11,6 C 22,5 C 15,2 C 80 % 0 lf 1011,5 hPa 0,0 l/m 0,93 h 0,00 h 546 W/m 9,1 km/h (2 Bft) 94,81 %
10.04.2016 12:00 13,5 C 23,7 C 17,3 C 72 % 0 lf 1011,4 hPa 0,0 l/m 0,90 h 0,00 h 680 W/m 11,0 km/h (2 Bft) 95,72 %
10.04.2016 13:00 15,1 C 23,9 C 15,3 C 66 % 0 lf 1010,9 hPa 0,0 l/m 1,00 h 0,00 h 775 W/m 12,8 km/h (3 Bft) 97,01 %
10.04.2016 14:00 17,1 C 24,9 C 15,3 C 58 % 0 lf 1010,4 hPa 0,0 l/m 1,00 h 0,00 h 738 W/m 14,8 km/h (3 Bft) 95,37 %
10.04.2016 15:00 18,2 C 23,8 C 16,5 C 51 % 0 lf 1009,9 hPa 0,0 l/m 1,00 h 0,00 h 687 W/m 17,5 km/h (3 Bft) 97,08 %
10.04.2016 16:00 18,4 C 21,4 C 16,9 C 52 % 0 lf 1009,5 hPa 0,0 l/m 0,50 h 0,00 h 369 W/m 18,7 km/h (3 Bft) 96,08 %
10.04.2016 17:00 18,4 C 22,4 C 16,5 C 52 % 0 lf 1009,4 hPa 0,0 l/m 0,90 h 0,00 h 374 W/m 16,4 km/h (3 Bft) 96,51 %
10.04.2016 18:00 18,2 C 18,6 C 16,1 C 49 % 0 lf 1009,4 hPa 0,0 l/m 0,73 h 0,00 h 190 W/m 23,7 km/h (4 Bft) 95,02 %
10.04.2016 19:00 17,3 C 17,0 C 14,9 C 52 % 0 lf 1009,5 hPa 0,0 l/m 0,30 h 0,00 h 64 W/m 21,0 km/h (4 Bft) 97,58 %
10.04.2016 20:00 15,7 C 15,2 C 13,2 C 56 % 0 lf 1009,6 hPa 0,0 l/m 0,00 h 0,00 h 11 W/m 19,9 km/h (4 Bft) 96,73 %
10.04.2016 21:00 14,6 C 14,2 C 12,4 C 59 % 0 lf 1010,0 hPa 0,0 l/m 0,00 h 0,00 h 0 W/m 18,2 km/h (3 Bft) 93,95 %
10.04.2016 22:00 13,5 C 12,5 C 10,3 C 63 % 0 lf 1010,3 hPa 0,0 l/m 0,00 h 0,00 h 0 W/m 10,3 km/h (2 Bft) 97,86 %
10.04.2016 23:00 12,0 C 10,8 C 8,4 C 67 % 0 lf 1010,6 hPa 0,0 l/m 0,00 h 0,00 h 0 W/m 8,9 km/h (2 Bft) 98,14 %
Min-Datum _ 09.04.16 09.04.16 09.04.16 09.04.16 04.04.16 04.04.16 - - - - 04.04.16 09.04.16
_ Min-Zeit 07:26 04:18 04:56 18:00 00:00 05:24 - - - - 19:54 00:02
Minimum _ 2,3 C 1,7 C 0,6 C 43 % 0 lf 1004,0 hPa - - - - 0,0 km/h (0 Bft) 14,29 %
Max-Datum _ 10.04.16 10.04.16 09.04.16 05.04.16 04.04.16 08.04.16 05.04.16 04.04.16 04.04.16 07.04.16 06.04.16 04.04.16
_ Max-Zeit 16:14 15:02 12:52 09:46 01:32 10:20 05:00 07:42 00:30 14:08 16:44 01:06
Maximum _ 19,1 C 28,9 C 20,6 C 97 % 15 lf 1012,0 hPa 1,6 l/m 0,03 h 0,03 h 1078 W/m 56,5 km/h
W-SW (7 Bft)
100,00 %
Durchschnitt _ 10,4 C 11,5 C 9,1 C 79 % 4 lf 1008,2 hPa #9,4 l/m #39:34 h #18:50 h 235 W/m 14,1 km/h (3 Bft) 96,10 %
© 2016 W. Hausmann